Time;durP1;ratioP1;P1;durP2;ratioP2;P2;SDS_P1;SDS_P2;PMS_P1;PMS_P2;Temp;Humidity;BMP_temperature;BMP_pressure;BME280_temperature;BME280_humidity;BME280_pressure;Samples;Min_cycle;Max_cycle;Signal;HPM_P1;HPM_P2
2021/06/22 00:00:10;;;;;;;1.95;1.70;;;18.00;99.90;;;;;;6230834;28;20134;-78
2021/06/22 00:03:12;;;;;;;2.08;1.75;;;17.90;99.90;;;;;;6231337;28;20459;-79
2021/06/22 00:06:14;;;;;;;1.95;1.80;;;18.10;99.90;;;;;;6247672;28;20048;-79
2021/06/22 00:09:16;;;;;;;2.15;1.63;;;18.20;99.90;;;;;;6256487;28;20088;-79
2021/06/22 00:12:17;;;;;;;2.40;2.20;;;18.30;99.90;;;;;;6255957;28;20073;-80
2021/06/22 00:15:23;;;;;;;1.92;1.83;;;18.30;99.90;;;;;;6254643;28;20503;-79
2021/06/22 00:18:25;;;;;;;5.07;2.78;;;18.40;99.90;;;;;;6256482;28;20197;-80
2021/06/22 00:21:28;;;;;;;4.10;1.67;;;18.50;99.90;;;;;;6256876;28;20076;-81
2021/06/22 00:24:30;;;;;;;1.58;1.48;;;18.60;99.90;;;;;;6255686;28;20044;-80
2021/06/22 00:27:31;;;;;;;4.68;2.13;;;18.60;99.90;;;;;;6259974;28;20046;-81
2021/06/22 00:30:35;;;;;;;1.85;1.75;;;18.60;99.90;;;;;;6259792;28;20042;-81
2021/06/22 00:33:36;;;;;;;3.38;1.80;;;18.60;99.90;;;;;;6264331;28;20146;-80
2021/06/22 00:36:38;;;;;;;2.08;1.88;;;18.60;99.90;;;;;;6263031;28;20079;-81
2021/06/22 00:39:40;;;;;;;2.10;1.90;;;18.50;99.90;;;;;;6256514;28;20118;-80
2021/06/22 00:42:44;;;;;;;1.65;1.55;;;18.50;99.90;;;;;;6258378;28;20069;-80
2021/06/22 00:45:47;;;;;;;4.85;2.45;;;18.60;99.90;;;;;;6257366;28;20099;-78
2021/06/22 00:48:48;;;;;;;2.40;2.05;;;18.70;99.90;;;;;;6258213;28;20053;-80
2021/06/22 00:51:50;;;;;;;2.35;1.80;;;18.80;99.90;;;;;;6258207;28;20046;-80
2021/06/22 00:54:53;;;;;;;3.53;1.98;;;18.60;99.90;;;;;;6257368;28;20065;-80
2021/06/22 00:57:55;;;;;;;2.58;2.08;;;18.50;99.90;;;;;;6256875;28;20135;-80
2021/06/22 01:01:01;;;;;;;5.30;2.20;;;18.50;99.90;;;;;;6257080;28;20470;-80
2021/06/22 01:04:03;;;;;;;2.60;2.22;;;18.60;99.90;;;;;;6257677;28;20052;-77
2021/06/22 01:07:05;;;;;;;3.53;3.00;;;18.30;99.90;;;;;;6255730;28;20119;-80
2021/06/22 01:10:10;;;;;;;4.10;2.75;;;18.10;99.90;;;;;;6255770;28;20046;-80
2021/06/22 01:13:12;;;;;;;3.70;2.15;;;18.00;99.90;;;;;;6261988;28;20049;-80
2021/06/22 01:16:23;;;;;;;6.47;2.47;;;18.00;99.90;;;;;;6261173;28;20041;-78
2021/06/22 01:19:25;;;;;;;4.22;2.35;;;17.90;99.90;;;;;;6260709;28;20133;-80
2021/06/22 01:22:28;;;;;;;4.68;2.70;;;17.80;99.90;;;;;;6256252;28;20495;-80
2021/06/22 01:25:31;;;;;;;3.72;2.17;;;17.90;99.90;;;;;;6260059;28;20109;-82
2021/06/22 01:28:33;;;;;;;2.42;2.20;;;17.90;99.90;;;;;;6255801;28;20049;-79
2021/06/22 01:31:35;;;;;;;5.18;2.95;;;17.90;99.90;;;;;;6256138;28;20080;-80
2021/06/22 01:34:39;;;;;;;3.03;2.45;;;17.80;99.90;;;;;;6257259;28;20053;-81
2021/06/22 01:37:52;;;;;;;7.28;3.03;;;17.70;99.90;;;;;;6259319;28;20095;-80
2021/06/22 01:40:54;;;;;;;3.72;2.58;;;17.60;99.90;;;;;;6255862;28;20511;-81
2021/06/22 01:43:56;;;;;;;2.67;2.47;;;17.50;99.90;;;;;;6255863;28;20049;-80
2021/06/22 01:46:58;;;;;;;4.28;3.15;;;17.50;99.90;;;;;;6255887;28;20068;-79
2021/06/22 01:50:02;;;;;;;4.30;3.40;;;17.50;99.90;;;;;;6257727;28;20095;-79
2021/06/22 01:53:05;;;;;;;3.35;3.05;;;17.50;99.90;;;;;;6258766;28;20049;-79
2021/06/22 01:56:10;;;;;;;3.20;2.55;;;17.50;99.90;;;;;;6253557;28;20038;-78
2021/06/22 01:59:12;;;;;;;5.20;3.47;;;17.50;99.90;;;;;;6253212;28;20119;-79
2021/06/22 02:02:14;;;;;;;4.00;3.50;;;17.60;99.90;;;;;;6251815;28;20062;-78
2021/06/22 02:05:16;;;;;;;4.22;3.83;;;17.60;99.90;;;;;;6253216;28;20065;-79
2021/06/22 02:08:20;;;;;;;5.75;4.68;;;17.70;99.90;;;;;;6254959;28;20069;-79
2021/06/22 02:11:21;;;;;;;5.00;3.80;;;17.80;99.90;;;;;;6253419;28;20065;-79
2021/06/22 02:14:23;;;;;;;8.57;4.28;;;17.80;99.90;;;;;;6252034;28;20127;-79
2021/06/22 02:17:25;;;;;;;2.55;2.35;;;17.80;99.90;;;;;;6250824;28;20447;-79
2021/06/22 02:20:27;;;;;;;7.55;3.47;;;17.90;99.90;;;;;;6251245;28;20057;-79
2021/06/22 02:23:30;;;;;;;10.93;4.63;;;17.90;99.90;;;;;;6250367;28;20150;-78
2021/06/22 02:26:32;;;;;;;4.25;3.85;;;17.90;99.90;;;;;;6250618;28;20128;-79
2021/06/22 02:29:34;;;;;;;5.60;5.03;;;17.80;99.90;;;;;;6251323;28;20054;-79
2021/06/22 02:32:37;;;;;;;6.80;6.20;;;17.80;99.90;;;;;;6252773;28;20073;-78
2021/06/22 02:35:39;;;;;;;10.48;8.13;;;17.80;99.90;;;;;;6253343;28;20570;-80
2021/06/22 02:38:42;;;;;;;13.38;8.13;;;17.80;99.90;;;;;;6255081;28;20415;-79
2021/06/22 02:41:44;;;;;;;12.50;8.93;;;17.70;99.90;;;;;;6255988;28;20076;-79
2021/06/22 02:44:46;;;;;;;11.77;9.40;;;17.70;99.90;;;;;;6256049;28;20049;-78
2021/06/22 02:47:48;;;;;;;13.90;9.13;;;17.60;99.90;;;;;;6256288;28;20172;-79
2021/06/22 02:50:50;;;;;;;9.70;8.40;;;17.60;99.90;;;;;;6256261;28;20511;-78
2021/06/22 02:53:53;;;;;;;10.60;8.40;;;17.60;99.90;;;;;;6254766;28;20136;-79
2021/06/22 02:56:55;;;;;;;14.82;11.55;;;17.70;99.90;;;;;;6255793;28;20179;-78
2021/06/22 02:59:57;;;;;;;11.23;10.00;;;18.00;99.90;;;;;;6253478;28;20047;-79
2021/06/22 03:02:59;;;;;;;12.80;11.45;;;18.20;99.90;;;;;;6255121;28;20049;-79
2021/06/22 03:06:01;;;;;;;15.20;10.15;;;18.40;99.90;;;;;;6256714;28;20183;-79
2021/06/22 03:09:06;;;;;;;14.63;10.88;;;18.50;99.90;;;;;;6255681;28;20049;-79
2021/06/22 03:12:08;;;;;;;16.40;13.23;;;18.50;99.90;;;;;;6254570;28;20079;-79
2021/06/22 03:15:13;;;;;;;21.65;14.55;;;18.40;99.90;;;;;;6253741;28;20116;-79
2021/06/22 03:18:15;;;;;;;21.20;15.52;;;18.40;99.90;;;;;;6255007;28;20068;-79
2021/06/22 03:21:17;;;;;;;31.00;16.67;;;18.40;99.90;;;;;;6254207;28;20518;-79
2021/06/22 03:24:21;;;;;;;15.98;12.75;;;18.30;99.90;;;;;;6253512;28;20095;-79
2021/06/22 03:27:23;;;;;;;16.33;13.00;;;18.40;99.90;;;;;;6252626;28;20206;-79
2021/06/22 03:30:25;;;;;;;18.25;14.25;;;18.40;99.90;;;;;;6253121;28;20077;-77
2021/06/22 03:33:27;;;;;;;15.68;14.15;;;18.50;99.90;;;;;;6253887;28;20108;-78
2021/06/22 03:36:29;;;;;;;14.73;13.18;;;18.50;99.90;;;;;;6253809;28;20045;-78
2021/06/22 03:39:33;;;;;;;15.85;14.13;;;18.60;99.90;;;;;;6251133;28;20049;-79
2021/06/22 03:42:36;;;;;;;14.52;13.10;;;18.80;99.90;;;;;;6250344;28;20520;-79
2021/06/22 03:45:38;;;;;;;15.68;14.07;;;18.90;99.90;;;;;;6253256;28;20049;-78
2021/06/22 03:48:40;;;;;;;20.63;15.02;;;19.00;99.90;;;;;;6254421;28;20053;-78
2021/06/22 03:51:41;;;;;;;18.65;14.70;;;19.00;99.90;;;;;;6255353;28;20190;-78
2021/06/22 03:54:45;;;;;;;15.98;13.07;;;19.00;99.90;;;;;;6249945;28;20049;-79
2021/06/22 03:57:46;;;;;;;15.80;14.00;;;19.00;99.90;;;;;;6253323;28;20340;-78
2021/06/22 04:00:48;;;;;;;23.15;16.70;;;18.90;99.90;;;;;;6255190;28;20541;-79
2021/06/22 04:03:50;;;;;;;16.52;13.60;;;18.70;99.90;;;;;;6254281;28;20061;-78
2021/06/22 04:06:52;;;;;;;14.55;12.43;;;18.60;99.90;;;;;;6255815;28;20061;-78
2021/06/22 04:09:55;;;;;;;20.23;15.18;;;18.60;99.90;;;;;;6254747;28;20136;-78
2021/06/22 04:12:57;;;;;;;17.45;13.13;;;18.70;99.90;;;;;;6254940;28;20136;-78
2021/06/22 04:15:59;;;;;;;17.92;13.48;;;18.70;99.90;;;;;;6254991;28;20068;-78
2021/06/22 04:19:00;;;;;;;16.67;14.95;;;18.60;99.90;;;;;;6253884;28;20107;-79
2021/06/22 04:22:02;;;;;;;16.42;14.70;;;18.50;99.90;;;;;;6254116;28;20171;-78
2021/06/22 04:25:07;;;;;;;13.85;11.75;;;18.60;99.90;;;;;;6254547;28;20049;-78
2021/06/22 04:28:09;;;;;;;17.10;11.82;;;18.50;99.90;;;;;;6253738;28;20463;-78
2021/06/22 04:31:11;;;;;;;14.43;11.27;;;18.50;99.90;;;;;;6251733;28;20048;-78
2021/06/22 04:34:13;;;;;;;13.75;10.25;;;18.50;99.90;;;;;;6253223;28;20112;-78
2021/06/22 04:37:15;;;;;;;14.27;11.35;;;18.40;99.90;;;;;;6253222;28;20526;-78
2021/06/22 04:40:18;;;;;;;12.95;10.63;;;18.40;99.90;;;;;;6251546;28;20041;-78
2021/06/22 04:43:20;;;;;;;15.85;10.85;;;18.40;99.90;;;;;;6252051;28;20069;-78
2021/06/22 04:46:22;;;;;;;15.38;12.00;;;18.40;99.90;;;;;;6251232;28;20439;-78
2021/06/22 04:49:24;;;;;;;15.15;13.32;;;18.30;99.90;;;;;;6251344;28;20091;-78
2021/06/22 04:52:25;;;;;;;17.40;12.90;;;18.30;99.90;;;;;;6251705;28;20048;-78
2021/06/22 04:55:29;;;;;;;14.00;12.45;;;18.30;99.90;;;;;;6253008;28;20042;-78
2021/06/22 04:58:31;;;;;;;14.80;13.30;;;18.30;99.90;;;;;;6251326;28;20099;-78
2021/06/22 05:01:33;;;;;;;13.98;12.57;;;18.30;99.90;;;;;;6252712;28;20080;-78
2021/06/22 05:04:35;;;;;;;13.80;11.50;;;18.30;99.90;;;;;;6248610;28;20127;-78
2021/06/22 05:07:37;;;;;;;13.68;12.27;;;18.30;99.90;;;;;;6247974;28;20136;-78
2021/06/22 05:10:40;;;;;;;13.80;11.95;;;18.30;99.90;;;;;;6247759;28;20072;-78
2021/06/22 05:13:43;;;;;;;18.67;12.82;;;18.30;99.90;;;;;;6249092;28;20049;-78
2021/06/22 05:16:45;;;;;;;14.13;12.50;;;18.40;99.90;;;;;;6248618;28;20049;-79
2021/06/22 05:19:46;;;;;;;13.43;11.68;;;18.40;99.90;;;;;;6249599;28;20115;-78
2021/06/22 05:22:48;;;;;;;13.82;11.98;;;18.40;99.90;;;;;;6249386;28;20045;-78
2021/06/22 05:25:51;;;;;;;14.57;12.40;;;18.40;99.90;;;;;;6247759;28;20093;-78
2021/06/22 05:28:53;;;;;;;13.38;11.27;;;18.50;99.90;;;;;;6248548;28;20077;-79
2021/06/22 05:31:55;;;;;;;18.10;13.15;;;18.50;99.90;;;;;;6247481;28;20053;-79
2021/06/22 05:34:57;;;;;;;14.05;11.93;;;18.50;99.90;;;;;;6247786;28;20095;-79
2021/06/22 05:37:59;;;;;;;19.40;12.82;;;18.50;99.90;;;;;;6247606;28;20080;-78
2021/06/22 05:41:02;;;;;;;16.35;12.73;;;18.50;99.90;;;;;;6247996;28;20140;-78
2021/06/22 05:44:05;;;;;;;14.30;12.27;;;18.60;99.90;;;;;;6247011;28;20388;-78
2021/06/22 05:47:07;;;;;;;14.50;11.20;;;18.60;99.90;;;;;;6247645;28;20052;-78
2021/06/22 05:50:11;;;;;;;17.77;13.18;;;18.50;99.90;;;;;;6247816;28;20069;-78
2021/06/22 05:53:12;;;;;;;14.70;13.20;;;18.50;99.90;;;;;;6248085;28;20188;-78
2021/06/22 05:56:15;;;;;;;18.95;13.27;;;18.50;99.90;;;;;;6247478;28;20524;-79
2021/06/22 05:59:17;;;;;;;15.48;13.45;;;18.50;99.90;;;;;;6248041;28;20119;-79
2021/06/22 06:02:19;;;;;;;17.85;14.95;;;18.50;99.90;;;;;;6248402;28;20100;-79
2021/06/22 06:05:23;;;;;;;16.55;14.63;;;18.50;99.90;;;;;;6237036;28;20487;-79
2021/06/22 06:08:24;;;;;;;16.70;14.80;;;18.50;99.90;;;;;;6250872;28;20061;-78
2021/06/22 06:11:28;;;;;;;21.17;15.50;;;18.50;99.90;;;;;;6251395;28;20069;-78
2021/06/22 06:14:29;;;;;;;18.17;14.57;;;18.50;99.90;;;;;;6249822;28;20111;-78
2021/06/22 06:17:31;;;;;;;17.30;15.00;;;18.60;99.90;;;;;;6250186;28;20077;-78
2021/06/22 06:20:33;;;;;;;14.98;13.48;;;18.60;99.90;;;;;;6248495;28;20049;-79
2021/06/22 06:23:39;;;;;;;23.50;19.58;;;18.60;99.90;;;;;;6252187;28;20096;-79
2021/06/22 06:26:53;;;;;;;27.52;19.80;;;18.50;99.90;;;;;;6253884;28;20049;-78
2021/06/22 06:29:58;;;;;;;27.10;21.25;;;18.10;99.90;;;;;;6253349;28;20399;-79
2021/06/22 06:32:59;;;;;;;31.33;22.55;;;17.70;99.90;;;;;;6257574;28;20057;-79
2021/06/22 06:36:01;;;;;;;32.05;22.20;;;17.50;99.90;;;;;;6257417;28;20065;-79
2021/06/22 06:39:03;;;;;;;36.00;23.10;;;17.50;99.90;;;;;;6255923;28;20099;-78
2021/06/22 06:42:07;;;;;;;32.65;25.70;;;17.40;99.90;;;;;;6255496;28;20087;-78
2021/06/22 06:45:11;;;;;;;43.45;26.13;;;17.30;99.90;;;;;;6255910;28;20073;-78
2021/06/22 06:48:13;;;;;;;38.63;25.48;;;17.20;99.90;;;;;;6254780;28;20109;-78
2021/06/22 06:51:15;;;;;;;33.17;24.98;;;17.20;99.90;;;;;;6253979;28;20049;-79
2021/06/22 06:54:17;;;;;;;36.70;24.02;;;17.20;99.90;;;;;;6256354;28;20603;-80
2021/06/22 06:57:20;;;;;;;30.98;22.70;;;17.20;99.90;;;;;;6256227;28;20468;-80
2021/06/22 07:00:23;;;;;;;34.33;23.70;;;17.20;99.90;;;;;;6256655;28;20050;-79
2021/06/22 07:03:25;;;;;;;35.92;21.60;;;17.20;99.90;;;;;;6256861;28;20049;-80
2021/06/22 07:06:27;;;;;;;35.30;23.27;;;17.20;99.90;;;;;;6255348;28;20111;-80
2021/06/22 07:09:29;;;;;;;39.97;25.15;;;17.20;99.90;;;;;;6255707;28;20638;-79
2021/06/22 07:12:32;;;;;;;38.20;23.85;;;17.20;99.90;;;;;;6255452;28;20109;-80
2021/06/22 07:15:34;;;;;;;43.10;25.88;;;17.20;99.90;;;;;;6255563;28;20049;-79
2021/06/22 07:18:36;;;;;;;36.97;25.10;;;17.20;99.90;;;;;;6255658;28;20139;-80
2021/06/22 07:21:37;;;;;;;38.05;25.52;;;17.30;99.90;;;;;;6258035;28;20045;-80
2021/06/22 07:24:39;;;;;;;46.63;26.75;;;17.30;99.90;;;;;;6254857;28;20073;-79
2021/06/22 07:27:43;;;;;;;42.55;26.33;;;17.40;99.90;;;;;;6254614;28;20049;-80
2021/06/22 07:30:44;;;;;;;35.00;24.42;;;17.40;99.90;;;;;;6254907;28;20057;-80
2021/06/22 07:33:49;;;;;;;30.05;21.88;;;17.50;99.90;;;;;;6253329;28;20072;-79
2021/06/22 07:36:51;;;;;;;35.28;25.08;;;17.60;99.90;;;;;;6255677;28;20112;-79
2021/06/22 07:39:53;;;;;;;28.17;20.95;;;17.60;99.90;;;;;;6258093;28;20042;-79
2021/06/22 07:42:56;;;;;;;27.63;21.83;;;17.70;99.90;;;;;;6255426;28;20104;-79
2021/06/22 07:45:58;;;;;;;24.45;19.65;;;17.80;99.90;;;;;;6260219;28;20051;-79
2021/06/22 07:49:00;;;;;;;24.58;20.35;;;17.80;99.90;;;;;;6257481;28;20495;-79
2021/06/22 07:52:02;;;;;;;27.95;20.27;;;17.90;99.90;;;;;;6254776;28;20126;-78
2021/06/22 07:55:05;;;;;;;26.55;20.40;;;17.90;99.90;;;;;;6248891;28;20057;-78
2021/06/22 07:58:09;;;;;;;24.35;20.48;;;17.90;99.90;;;;;;6248792;28;20080;-78
2021/06/22 08:01:10;;;;;;;21.48;18.98;;;18.00;99.90;;;;;;6248712;28;20140;-78
2021/06/22 08:04:12;;;;;;;21.80;16.23;;;18.00;99.90;;;;;;6248372;28;20132;-77
2021/06/22 08:07:14;;;;;;;22.58;17.70;;;18.10;99.90;;;;;;6248750;28;20034;-77
2021/06/22 08:10:16;;;;;;;20.13;17.55;;;18.00;99.90;;;;;;6248315;28;20045;-77
2021/06/22 08:13:20;;;;;;;19.95;16.80;;;18.10;99.90;;;;;;6248810;28;20119;-77
2021/06/22 08:16:22;;;;;;;23.45;18.08;;;18.10;99.90;;;;;;6248522;28;20049;-78
2021/06/22 08:19:23;;;;;;;25.35;19.40;;;18.10;99.90;;;;;;6253226;28;20092;-78
2021/06/22 08:22:25;;;;;;;28.70;20.92;;;18.00;99.90;;;;;;6253759;28;20041;-77
2021/06/22 08:25:29;;;;;;;22.25;17.20;;;18.10;99.90;;;;;;6251456;28;20136;-78
2021/06/22 08:28:32;;;;;;;24.25;19.55;;;18.20;99.90;;;;;;6252095;28;20068;-80
2021/06/22 08:31:34;;;;;;;18.52;16.10;;;18.30;99.90;;;;;;6248905;28;20041;-79
2021/06/22 08:34:35;;;;;;;24.67;16.83;;;18.30;99.90;;;;;;6249736;28;20049;-79
2021/06/22 08:37:37;;;;;;;21.98;16.65;;;18.30;99.90;;;;;;6248886;28;20049;-78
2021/06/22 08:40:41;;;;;;;18.00;13.52;;;18.30;99.90;;;;;;6252073;28;20171;-77
2021/06/22 08:43:47;;;;;;;19.83;14.40;;;18.30;99.90;;;;;;6248226;28;20124;-80
2021/06/22 08:46:50;;;;;;;20.27;15.25;;;18.30;99.90;;;;;;6248083;28;20122;-78
2021/06/22 08:49:53;;;;;;;21.25;15.00;;;18.30;99.90;;;;;;6248591;28;20053;-78
2021/06/22 08:52:55;;;;;;;23.83;16.15;;;18.30;99.90;;;;;;6249730;28;20540;-78
2021/06/22 08:55:57;;;;;;;24.17;19.15;;;18.30;99.90;;;;;;6247819;28;20084;-78
2021/06/22 08:59:00;;;;;;;24.45;19.13;;;18.30;99.90;;;;;;6248234;28;20128;-78
2021/06/22 09:02:02;;;;;;;23.08;19.45;;;18.30;99.90;;;;;;6250308;28;20079;-79
2021/06/22 09:05:05;;;;;;;22.77;17.25;;;18.30;99.90;;;;;;6250151;28;20077;-79
2021/06/22 09:08:17;;;;;;;23.73;17.63;;;18.40;99.90;;;;;;6249530;28;20069;-79
2021/06/22 09:11:20;;;;;;;22.75;19.02;;;18.40;99.90;;;;;;6250208;28;20049;-79
2021/06/22 09:14:34;;;;;;;20.80;18.08;;;18.40;99.90;;;;;;6249296;28;20138;-79
2021/06/22 09:17:36;;;;;;;25.75;18.85;;;18.50;99.90;;;;;;6250018;28;20049;-78
2021/06/22 09:20:40;;;;;;;23.27;14.35;;;18.40;99.90;;;;;;6248595;28;20129;-77
2021/06/22 09:23:44;;;;;;;21.50;15.35;;;18.50;99.90;;;;;;6248797;28;20137;-78
2021/06/22 09:26:48;;;;;;;16.00;14.13;;;18.40;99.90;;;;;;6249229;28;20049;-79
2021/06/22 09:29:51;;;;;;;20.63;15.25;;;18.40;99.90;;;;;;6248860;28;20088;-80
2021/06/22 09:32:53;;;;;;;18.75;15.07;;;18.40;99.90;;;;;;6248148;28;20083;-78
2021/06/22 09:36:01;;;;;;;18.90;14.68;;;18.30;99.90;;;;;;6247862;28;20045;-79
2021/06/22 09:39:06;;;;;;;18.73;16.58;;;18.20;99.90;;;;;;6250804;28;20049;-77
2021/06/22 09:42:12;;;;;;;23.90;17.67;;;18.10;99.90;;;;;;6237891;28;20052;-78
2021/06/22 09:45:28;;;;;;;23.40;18.08;;;18.00;99.90;;;;;;6242068;28;20144;-77
2021/06/22 09:48:30;;;;;;;25.33;20.50;;;17.90;99.90;;;;;;6250746;28;20488;-78
2021/06/22 09:51:36;;;;;;;32.42;21.88;;;17.80;99.90;;;;;;6251316;28;20048;-78
2021/06/22 09:54:46;;;;;;;24.80;18.90;;;17.90;99.90;;;;;;6249156;28;20048;-79
2021/06/22 09:57:48;;;;;;;22.15;18.17;;;17.80;99.90;;;;;;6249262;28;20217;-78
2021/06/22 10:00:51;;;;;;;18.17;16.15;;;17.80;99.90;;;;;;6251223;28;20053;-78
2021/06/22 10:03:54;;;;;;;36.72;20.05;;;18.00;99.90;;;;;;6251186;28;20109;-78
2021/06/22 10:06:58;;;;;;;22.98;18.23;;;18.00;99.90;;;;;;6256890;28;20080;-80
2021/06/22 10:10:02;;;;;;;19.95;17.15;;;18.10;99.90;;;;;;6259476;28;20053;-79
2021/06/22 10:13:04;;;;;;;22.27;17.08;;;18.10;99.90;;;;;;6260377;28;20117;-79
2021/06/22 10:16:23;;;;;;;16.08;14.07;;;18.20;99.90;;;;;;6256441;28;20049;-79
2021/06/22 10:19:26;;;;;;;21.98;17.00;;;18.30;99.90;;;;;;6251014;28;20525;-78
2021/06/22 10:22:31;;;;;;;22.05;15.45;;;18.50;99.90;;;;;;6252167;28;20041;-78
2021/06/22 10:25:33;;;;;;;17.63;12.77;;;18.70;99.90;;;;;;6250769;28;20136;-78
2021/06/22 10:28:35;;;;;;;19.27;12.63;;;18.80;99.90;;;;;;6250395;28;20041;-78
2021/06/22 10:31:38;;;;;;;17.50;13.77;;;19.00;99.90;;;;;;6250942;28;20458;-79
2021/06/22 10:34:44;;;;;;;14.15;10.70;;;19.00;99.90;;;;;;6252833;28;20115;-79
2021/06/22 10:37:49;;;;;;;13.88;12.18;;;19.00;99.90;;;;;;6253649;28;20487;-78
2021/06/22 10:40:55;;;;;;;15.50;12.43;;;19.10;99.90;;;;;;6253803;28;20049;-78
2021/06/22 10:43:57;;;;;;;15.48;11.88;;;19.30;99.90;;;;;;6253867;28;20115;-79
2021/06/22 10:47:22;;;;;;;15.13;12.48;;;19.40;99.90;;;;;;6259998;28;20511;-79
2021/06/22 10:50:32;;;;;;;12.93;11.43;;;19.60;99.90;;;;;;6256901;28;20046;-79
2021/06/22 10:53:45;;;;;;;12.27;11.02;;;19.60;99.90;;;;;;6256905;28;20081;-80
2021/06/22 10:56:47;;;;;;;12.88;11.25;;;19.40;99.90;;;;;;6255815;28;20045;-79
2021/06/22 11:00:03;;;;;;;14.77;12.48;;;19.30;99.90;;;;;;6258472;28;20515;-79
2021/06/22 11:03:07;;;;;;;13.80;12.35;;;19.30;99.90;;;;;;6253882;28;20053;-80
2021/06/22 11:06:24;;;;;;;13.80;12.18;;;19.20;99.90;;;;;;6255437;28;20061;-80
2021/06/22 11:09:26;;;;;;;16.40;12.63;;;19.10;99.90;;;;;;6255843;28;20415;-79
2021/06/22 11:12:27;;;;;;;16.00;12.50;;;19.00;99.90;;;;;;6255718;28;20192;-80
2021/06/22 11:15:46;;;;;;;15.63;14.07;;;18.90;99.90;;;;;;6256246;28;20076;-79
2021/06/22 11:19:08;;;;;;;16.15;14.57;;;19.00;99.90;;;;;;6254960;28;20047;-77
2021/06/22 11:22:10;;;;;;;18.08;15.70;;;19.00;99.90;;;;;;6252148;28;20074;-78
2021/06/22 11:25:12;;;;;;;19.13;17.15;;;19.00;99.90;;;;;;6252979;28;20081;-77
2021/06/22 11:28:14;;;;;;;17.88;16.02;;;18.90;99.90;;;;;;6251568;28;20123;-79
2021/06/22 11:31:36;;;;;;;20.63;17.20;;;18.80;99.90;;;;;;6254837;28;20131;-78
2021/06/22 11:34:53;;;;;;;17.02;15.27;;;18.80;99.90;;;;;;6273634;28;20048;-77
2021/06/22 11:38:13;;;;;;;18.23;13.85;;;18.70;99.90;;;;;;6281634;28;20053;-79
2021/06/22 11:41:17;;;;;;;14.98;13.48;;;18.70;99.90;;;;;;6281805;28;20056;-78
2021/06/22 11:44:26;;;;;;;15.05;13.55;;;18.70;99.90;;;;;;6280716;28;20060;-79
2021/06/22 11:47:51;;;;;;;13.20;11.73;;;18.70;99.90;;;;;;6281029;28;20058;-79
2021/06/22 11:50:54;;;;;;;16.95;13.88;;;18.80;99.90;;;;;;6280548;28;20029;-80
2021/06/22 11:53:55;;;;;;;14.80;12.93;;;18.90;99.90;;;;;;6280758;28;20029;-78
2021/06/22 11:56:57;;;;;;;17.42;13.05;;;19.00;99.90;;;;;;6281317;28;20052;-78
2021/06/22 12:00:06;;;;;;;14.27;12.82;;;19.00;99.90;;;;;;6279466;28;20030;-76
2021/06/22 12:03:08;;;;;;;13.48;12.27;;;19.10;99.90;;;;;;6279009;28;20064;-77
2021/06/22 12:06:12;;;;;;;14.27;11.75;;;19.10;99.90;;;;;;6274121;28;20045;-77
2021/06/22 12:09:17;;;;;;;11.63;10.48;;;19.20;99.90;;;;;;6249085;28;20061;-75
2021/06/22 12:12:19;;;;;;;11.95;10.85;;;19.20;99.90;;;;;;6248078;28;20167;-75
2021/06/22 12:15:33;;;;;;;11.27;9.77;;;19.20;99.90;;;;;;6247473;28;20514;-77
2021/06/22 12:18:35;;;;;;;12.07;10.60;;;19.20;99.90;;;;;;6247704;28;20416;-76
2021/06/22 12:21:40;;;;;;;13.88;12.52;;;19.20;99.90;;;;;;6247312;28;20084;-77
2021/06/22 12:24:43;;;;;;;15.52;12.15;;;19.10;99.90;;;;;;6247031;28;20041;-76
2021/06/22 12:27:55;;;;;;;17.50;15.65;;;19.10;99.90;;;;;;6247560;28;20048;-76
2021/06/22 12:30:58;;;;;;;15.82;13.43;;;19.30;99.90;;;;;;6247514;28;20077;-77
2021/06/22 12:34:04;;;;;;;14.88;13.38;;;19.50;99.90;;;;;;6250512;28;20107;-76
2021/06/22 12:37:18;;;;;;;11.80;10.52;;;19.90;99.90;;;;;;6249813;28;20134;-78
2021/06/22 12:40:22;;;;;;;10.38;9.38;;;19.80;99.90;;;;;;6247733;28;20045;-76
2021/06/22 12:43:44;;;;;;;8.45;7.75;;;20.00;99.90;;;;;;6248288;28;20438;-77
2021/06/22 12:46:46;;;;;;;7.30;6.65;;;20.20;99.90;;;;;;6247361;28;20052;-76
2021/06/22 12:49:48;;;;;;;8.50;7.03;;;20.20;99.90;;;;;;6249284;28;20096;-77
2021/06/22 12:52:51;;;;;;;8.00;7.40;;;20.90;99.90;;;;;;6250182;28;20136;-77
2021/06/22 12:55:56;;;;;;;8.25;7.45;;;21.50;99.90;;;;;;6246639;28;20255;-77
2021/06/22 12:59:00;;;;;;;7.40;5.25;;;21.60;99.90;;;;;;6246422;28;20046;-76
2021/06/22 13:02:09;;;;;;;12.93;6.82;;;21.90;99.90;;;;;;6246752;28;25130;-76
2021/06/22 13:05:11;;;;;;;7.85;7.15;;;22.10;99.90;;;;;;6247375;28;20045;-76
2021/06/22 13:08:22;;;;;;;7.63;6.78;;;22.20;99.90;;;;;;6246801;28;20531;-76
2021/06/22 13:11:29;;;;;;;10.20;6.32;;;22.20;99.90;;;;;;6246185;28;20060;-76
2021/06/22 13:14:35;;;;;;;10.68;8.43;;;22.10;99.90;;;;;;6246694;28;20167;-76
2021/06/22 13:17:36;;;;;;;11.50;9.25;;;22.30;99.90;;;;;;6251044;28;20045;-78
2021/06/22 13:20:43;;;;;;;5.05;4.55;;;22.30;99.90;;;;;;6250236;28;20115;-78
2021/06/22 13:23:46;;;;;;;6.18;5.65;;;22.50;99.90;;;;;;6248605;28;20143;-77
2021/06/22 13:26:48;;;;;;;5.65;5.15;;;22.50;99.90;;;;;;6248282;28;20461;-78
2021/06/22 13:30:06;;;;;;;6.55;5.95;;;22.50;99.90;;;;;;6248207;28;20131;-78
2021/06/22 13:33:08;;;;;;;7.47;6.82;;;22.80;99.90;;;;;;6247949;28;20075;-80
2021/06/22 13:36:18;;;;;;;5.88;5.28;;;22.70;99.80;;;;;;6247345;28;20053;-78
2021/06/22 13:39:22;;;;;;;5.68;5.18;;;22.70;99.90;;;;;;6246716;28;20049;-78
2021/06/22 13:42:26;;;;;;;5.78;4.72;;;22.50;99.80;;;;;;6247379;28;20048;-78
2021/06/22 13:45:35;;;;;;;4.68;4.28;;;22.30;99.60;;;;;;6247490;28;20057;-79
2021/06/22 13:48:38;;;;;;;7.45;4.25;;;22.50;99.60;;;;;;6237300;28;20037;-79
2021/06/22 13:51:40;;;;;;;4.45;4.15;;;22.70;99.10;;;;;;6248575;28;20045;-78
2021/06/22 13:54:55;;;;;;;5.18;4.63;;;23.10;98.10;;;;;;6255276;28;20099;-79
2021/06/22 13:57:57;;;;;;;4.00;3.70;;;23.30;96.90;;;;;;6254358;28;20503;-78
2021/06/22 14:00:59;;;;;;;3.80;3.50;;;23.40;96.50;;;;;;6254288;28;20571;-78
2021/06/22 14:04:02;;;;;;;4.10;3.80;;;23.50;96.00;;;;;;6254647;28;20103;-78
2021/06/22 14:07:05;;;;;;;4.07;3.78;;;23.50;96.40;;;;;;6253349;28;20049;-77
2021/06/22 14:10:09;;;;;;;4.25;3.85;;;23.60;96.20;;;;;;6251154;28;20041;-80
2021/06/22 14:13:13;;;;;;;6.82;4.22;;;23.50;95.80;;;;;;6251538;28;20611;-79
2021/06/22 14:16:15;;;;;;;7.25;6.65;;;23.60;95.70;;;;;;6251252;28;20047;-81
2021/06/22 14:19:19;;;;;;;9.10;8.13;;;23.60;96.00;;;;;;6251277;28;20053;-81
2021/06/22 14:22:21;;;;;;;4.80;4.40;;;23.60;95.20;;;;;;6250395;28;20060;-79
2021/06/22 14:25:25;;;;;;;8.02;7.22;;;23.60;95.20;;;;;;6252019;28;20049;-81
2021/06/22 14:28:28;;;;;;;5.45;3.65;;;24.00;95.50;;;;;;6253519;28;20057;-80
2021/06/22 14:31:33;;;;;;;3.75;3.45;;;24.30;93.80;;;;;;6254019;28;20065;-79
2021/06/22 14:34:34;;;;;;;6.40;3.05;;;24.70;93.20;;;;;;6253576;28;20479;-81
2021/06/22 14:37:36;;;;;;;5.07;2.83;;;25.20;92.40;;;;;;6254421;28;20111;-79
2021/06/22 14:40:40;;;;;;;3.40;3.10;;;25.60;90.50;;;;;;6254026;28;20068;-79
2021/06/22 14:43:42;;;;;;;3.65;3.28;;;26.00;88.50;;;;;;6262470;28;20067;-79
2021/06/22 14:46:43;;;;;;;2.83;2.30;;;26.10;86.50;;;;;;6262227;28;20047;-78
2021/06/22 14:49:45;;;;;;;3.05;2.17;;;26.20;85.20;;;;;;6262030;28;20069;-80
2021/06/22 14:52:48;;;;;;;8.77;3.35;;;26.40;86.40;;;;;;6266928;28;20081;-79
2021/06/22 14:55:51;;;;;;;2.78;2.58;;;26.40;85.70;;;;;;6263337;28;20128;-79
2021/06/22 14:58:53;;;;;;;2.75;2.45;;;26.30;85.90;;;;;;6261837;28;20084;-78
2021/06/22 15:01:55;;;;;;;8.93;4.30;;;26.10;84.10;;;;;;6260608;28;20081;-78
2021/06/22 15:04:57;;;;;;;3.95;2.97;;;25.70;84.10;;;;;;6261465;28;20500;-78
2021/06/22 15:07:59;;;;;;;4.28;2.90;;;25.10;83.30;;;;;;6261461;28;20045;-77
2021/06/22 15:11:02;;;;;;;4.20;3.55;;;24.50;88.20;;;;;;6260018;28;20049;-78
2021/06/22 15:14:04;;;;;;;10.13;4.85;;;24.30;90.00;;;;;;6258919;28;20586;-78
2021/06/22 15:17:05;;;;;;;4.00;3.70;;;24.10;89.40;;;;;;6261181;28;20053;-79
2021/06/22 15:20:09;;;;;;;4.03;3.63;;;24.00;89.70;;;;;;6259180;28;20127;-79
2021/06/22 15:23:12;;;;;;;7.22;6.53;;;24.00;90.10;;;;;;6259644;28;20103;-79
2021/06/22 15:26:15;;;;;;;5.43;4.93;;;24.10;90.00;;;;;;6257933;28;20053;-79
2021/06/22 15:29:22;;;;;;;2.58;2.30;;;24.10;90.30;;;;;;6254515;28;20081;-79
2021/06/22 15:32:24;;;;;;;2.80;2.60;;;24.20;88.90;;;;;;6253503;28;20060;-79
2021/06/22 15:35:25;;;;;;;3.40;2.15;;;24.20;89.30;;;;;;6253849;28;20108;-79
2021/06/22 15:38:27;;;;;;;7.57;2.55;;;24.20;89.70;;;;;;6255984;28;20148;-77